sensor_id;sensor_type;location;lat;lon;timestamp;pressure;altitude;pressure_sealevel;temperature;humidity
1207;BME280;593;53.184;8.216;2023-08-21T00:00:53;101920.75;;;20.53;97.80
1207;BME280;593;53.184;8.216;2023-08-21T00:03:19;101918.63;;;20.50;97.43
1207;BME280;593;53.184;8.216;2023-08-21T00:05:44;101902.31;;;20.39;98.10
1207;BME280;593;53.184;8.216;2023-08-21T00:08:09;101901.34;;;20.35;98.00
1207;BME280;593;53.184;8.216;2023-08-21T00:10:37;101897.59;;;20.31;98.08
1207;BME280;593;53.184;8.216;2023-08-21T00:13:03;101907.97;;;20.34;98.19
1207;BME280;593;53.184;8.216;2023-08-21T00:15:28;101902.59;;;20.29;97.75
1207;BME280;593;53.184;8.216;2023-08-21T00:17:53;101903.75;;;20.28;97.51
1207;BME280;593;53.184;8.216;2023-08-21T00:20:20;101908.63;;;20.31;97.81
1207;BME280;593;53.184;8.216;2023-08-21T00:22:45;101896.66;;;20.22;98.13
1207;BME280;593;53.184;8.216;2023-08-21T00:25:10;101897.28;;;20.19;97.90
1207;BME280;593;53.184;8.216;2023-08-21T00:27:35;101905.28;;;20.21;98.15
1207;BME280;593;53.184;8.216;2023-08-21T00:30:01;101895.50;;;20.15;98.20
1207;BME280;593;53.184;8.216;2023-08-21T00:32:26;101891.75;;;20.11;98.25
1207;BME280;593;53.184;8.216;2023-08-21T00:34:52;101901.63;;;20.12;98.57
1207;BME280;593;53.184;8.216;2023-08-21T00:37:17;101901.00;;;20.15;98.91
1207;BME280;593;53.184;8.216;2023-08-21T00:39:42;101905.22;;;20.12;99.19
1207;BME280;593;53.184;8.216;2023-08-21T00:42:07;101894.94;;;20.04;99.32
1207;BME280;593;53.184;8.216;2023-08-21T00:44:33;101902.44;;;20.04;99.57
1207;BME280;593;53.184;8.216;2023-08-21T00:46:58;101898.03;;;20.03;99.35
1207;BME280;593;53.184;8.216;2023-08-21T00:49:24;101907.63;;;20.05;99.11
1207;BME280;593;53.184;8.216;2023-08-21T00:51:49;101900.78;;;20.03;99.64
1207;BME280;593;53.184;8.216;2023-08-21T00:54:15;101891.81;;;19.97;99.59
1207;BME280;593;53.184;8.216;2023-08-21T00:56:41;101886.91;;;19.94;99.50
1207;BME280;593;53.184;8.216;2023-08-21T00:59:07;101900.41;;;19.96;99.40
1207;BME280;593;53.184;8.216;2023-08-21T01:01:33;101896.63;;;19.92;99.44
1207;BME280;593;53.184;8.216;2023-08-21T01:03:58;101902.97;;;19.92;99.84
1207;BME280;593;53.184;8.216;2023-08-21T01:06:24;101908.00;;;19.90;99.93
1207;BME280;593;53.184;8.216;2023-08-21T01:08:53;101907.06;;;19.95;100.00
1207;BME280;593;53.184;8.216;2023-08-21T01:11:27;101889.94;;;19.84;100.00
1207;BME280;593;53.184;8.216;2023-08-21T01:14:03;101910.16;;;19.93;100.00
1207;BME280;593;53.184;8.216;2023-08-21T01:16:32;101908.97;;;19.86;100.00
1207;BME280;593;53.184;8.216;2023-08-21T01:18:58;101907.66;;;19.83;100.00
1207;BME280;593;53.184;8.216;2023-08-21T01:21:25;101900.59;;;19.77;100.00
1207;BME280;593;53.184;8.216;2023-08-21T01:23:50;101905.81;;;19.78;100.00
1207;BME280;593;53.184;8.216;2023-08-21T01:26:15;101912.47;;;19.77;100.00
1207;BME280;593;53.184;8.216;2023-08-21T01:28:41;101913.63;;;19.76;100.00
1207;BME280;593;53.184;8.216;2023-08-21T01:31:15;101932.13;;;19.76;100.00
1207;BME280;593;53.184;8.216;2023-08-21T01:33:45;101902.13;;;19.61;100.00
1207;BME280;593;53.184;8.216;2023-08-21T01:36:12;101923.25;;;19.65;100.00
1207;BME280;593;53.184;8.216;2023-08-21T01:38:38;101930.44;;;19.66;100.00
1207;BME280;593;53.184;8.216;2023-08-21T01:41:04;101925.81;;;19.62;100.00
1207;BME280;593;53.184;8.216;2023-08-21T01:43:29;101934.91;;;19.62;100.00
1207;BME280;593;53.184;8.216;2023-08-21T01:45:54;101934.41;;;19.60;100.00
1207;BME280;593;53.184;8.216;2023-08-21T01:48:20;101934.09;;;19.62;100.00
1207;BME280;593;53.184;8.216;2023-08-21T01:50:45;101940.56;;;19.57;100.00
1207;BME280;593;53.184;8.216;2023-08-21T01:53:10;101939.25;;;19.55;100.00
1207;BME280;593;53.184;8.216;2023-08-21T01:55:36;101956.00;;;19.58;100.00
1207;BME280;593;53.184;8.216;2023-08-21T01:58:01;101940.69;;;19.52;100.00
1207;BME280;593;53.184;8.216;2023-08-21T02:00:26;101957.13;;;19.57;100.00
1207;BME280;593;53.184;8.216;2023-08-21T02:02:51;101946.31;;;19.47;100.00
1207;BME280;593;53.184;8.216;2023-08-21T02:05:17;101932.63;;;19.42;100.00
1207;BME280;593;53.184;8.216;2023-08-21T02:07:42;101961.31;;;19.55;100.00
1207;BME280;593;53.184;8.216;2023-08-21T02:10:08;101953.47;;;19.48;100.00
1207;BME280;593;53.184;8.216;2023-08-21T02:12:33;101954.31;;;19.49;100.00
1207;BME280;593;53.184;8.216;2023-08-21T02:14:58;101945.00;;;19.45;100.00
1207;BME280;593;53.184;8.216;2023-08-21T02:17:26;101931.09;;;19.36;100.00
1207;BME280;593;53.184;8.216;2023-08-21T02:19:51;101932.22;;;19.35;100.00
1207;BME280;593;53.184;8.216;2023-08-21T02:22:16;101934.16;;;19.35;100.00
1207;BME280;593;53.184;8.216;2023-08-21T02:24:41;101942.34;;;19.40;100.00
1207;BME280;593;53.184;8.216;2023-08-21T02:27:07;101932.81;;;19.32;100.00
1207;BME280;593;53.184;8.216;2023-08-21T02:29:32;101942.41;;;19.35;100.00
1207;BME280;593;53.184;8.216;2023-08-21T02:31:57;101941.41;;;19.31;100.00
1207;BME280;593;53.184;8.216;2023-08-21T02:34:24;101939.16;;;19.33;100.00
1207;BME280;593;53.184;8.216;2023-08-21T02:36:49;101954.28;;;19.35;100.00
1207;BME280;593;53.184;8.216;2023-08-21T02:39:14;101942.03;;;19.28;100.00
1207;BME280;593;53.184;8.216;2023-08-21T02:41:39;101953.06;;;19.28;100.00
1207;BME280;593;53.184;8.216;2023-08-21T02:44:05;101936.72;;;19.17;100.00
1207;BME280;593;53.184;8.216;2023-08-21T02:46:30;101955.22;;;19.31;100.00
1207;BME280;593;53.184;8.216;2023-08-21T02:48:55;101951.44;;;19.27;100.00
1207;BME280;593;53.184;8.216;2023-08-21T02:51:20;101948.66;;;19.27;100.00
1207;BME280;593;53.184;8.216;2023-08-21T02:53:46;101944.41;;;19.20;100.00
1207;BME280;593;53.184;8.216;2023-08-21T02:56:11;101948.50;;;19.23;100.00
1207;BME280;593;53.184;8.216;2023-08-21T02:58:36;101921.50;;;19.06;100.00
1207;BME280;593;53.184;8.216;2023-08-21T03:01:01;101933.25;;;19.12;100.00
1207;BME280;593;53.184;8.216;2023-08-21T03:03:27;101942.38;;;19.12;100.00
1207;BME280;593;53.184;8.216;2023-08-21T03:05:52;101933.16;;;19.17;100.00
1207;BME280;593;53.184;8.216;2023-08-21T03:08:17;101922.03;;;19.08;100.00
1207;BME280;593;53.184;8.216;2023-08-21T03:10:42;101934.09;;;19.12;100.00
1207;BME280;593;53.184;8.216;2023-08-21T03:13:08;101930.81;;;19.10;100.00
1207;BME280;593;53.184;8.216;2023-08-21T03:15:34;101894.91;;;18.88;100.00
1207;BME280;593;53.184;8.216;2023-08-21T03:18:00;101932.88;;;19.05;100.00
1207;BME280;593;53.184;8.216;2023-08-21T03:20:25;101933.97;;;19.04;100.00
1207;BME280;593;53.184;8.216;2023-08-21T03:22:50;101938.72;;;19.03;100.00
1207;BME280;593;53.184;8.216;2023-08-21T03:25:16;101932.97;;;19.00;100.00
1207;BME280;593;53.184;8.216;2023-08-21T03:27:41;101924.81;;;18.95;100.00
1207;BME280;593;53.184;8.216;2023-08-21T03:30:09;101935.41;;;19.01;100.00
1207;BME280;593;53.184;8.216;2023-08-21T03:32:35;101931.31;;;18.99;100.00
1207;BME280;593;53.184;8.216;2023-08-21T03:35:01;101932.25;;;18.94;100.00
1207;BME280;593;53.184;8.216;2023-08-21T03:37:26;101939.09;;;18.97;100.00
1207;BME280;593;53.184;8.216;2023-08-21T03:39:51;101928.00;;;18.88;100.00
1207;BME280;593;53.184;8.216;2023-08-21T03:42:16;101924.50;;;18.83;100.00
1207;BME280;593;53.184;8.216;2023-08-21T03:44:42;101924.50;;;18.83;100.00
1207;BME280;593;53.184;8.216;2023-08-21T03:47:08;101929.53;;;18.81;100.00
1207;BME280;593;53.184;8.216;2023-08-21T03:49:34;101921.53;;;18.79;100.00
1207;BME280;593;53.184;8.216;2023-08-21T03:51:59;101927.78;;;18.85;100.00
1207;BME280;593;53.184;8.216;2023-08-21T03:54:24;101929.63;;;18.76;100.00
1207;BME280;593;53.184;8.216;2023-08-21T03:56:49;101923.59;;;18.74;100.00
1207;BME280;593;53.184;8.216;2023-08-21T03:59:15;101904.78;;;18.62;100.00
1207;BME280;593;53.184;8.216;2023-08-21T04:01:40;101912.06;;;18.58;100.00
1207;BME280;593;53.184;8.216;2023-08-21T04:04:05;101932.25;;;18.67;100.00
1207;BME280;593;53.184;8.216;2023-08-21T04:06:30;101926.56;;;18.64;100.00
1207;BME280;593;53.184;8.216;2023-08-21T04:08:56;101914.09;;;18.52;100.00
1207;BME280;593;53.184;8.216;2023-08-21T04:11:21;101930.00;;;18.55;100.00
1207;BME280;593;53.184;8.216;2023-08-21T04:13:46;101931.44;;;18.53;100.00
1207;BME280;593;53.184;8.216;2023-08-21T04:16:12;101930.72;;;18.47;100.00
1207;BME280;593;53.184;8.216;2023-08-21T04:18:37;101923.44;;;18.38;100.00
1207;BME280;593;53.184;8.216;2023-08-21T04:21:04;101934.88;;;18.45;100.00
1207;BME280;593;53.184;8.216;2023-08-21T04:23:29;101924.03;;;18.35;100.00
1207;BME280;593;53.184;8.216;2023-08-21T04:26:00;101941.06;;;18.37;100.00
1207;BME280;593;53.184;8.216;2023-08-21T04:28:26;101939.44;;;18.36;100.00
1207;BME280;593;53.184;8.216;2023-08-21T04:30:51;101936.16;;;18.34;100.00
1207;BME280;593;53.184;8.216;2023-08-21T04:33:17;101936.78;;;18.31;100.00
1207;BME280;593;53.184;8.216;2023-08-21T04:35:42;101939.31;;;18.27;100.00
1207;BME280;593;53.184;8.216;2023-08-21T04:38:07;101925.50;;;18.14;100.00
1207;BME280;593;53.184;8.216;2023-08-21T04:40:33;101945.94;;;18.26;100.00
1207;BME280;593;53.184;8.216;2023-08-21T04:42:58;101930.41;;;18.17;100.00
1207;BME280;593;53.184;8.216;2023-08-21T04:45:23;101931.22;;;18.17;100.00
1207;BME280;593;53.184;8.216;2023-08-21T04:47:48;101942.16;;;18.22;100.00
1207;BME280;593;53.184;8.216;2023-08-21T04:50:14;101936.75;;;18.17;100.00
1207;BME280;593;53.184;8.216;2023-08-21T04:52:41;101925.50;;;18.14;100.00
1207;BME280;593;53.184;8.216;2023-08-21T04:55:06;101943.06;;;18.18;100.00
1207;BME280;593;53.184;8.216;2023-08-21T04:57:32;101948.50;;;18.23;100.00
1207;BME280;593;53.184;8.216;2023-08-21T04:59:57;101943.91;;;18.18;100.00
1207;BME280;593;53.184;8.216;2023-08-21T05:02:22;101944.19;;;18.17;100.00
1207;BME280;593;53.184;8.216;2023-08-21T05:04:48;101945.00;;;18.17;100.00
1207;BME280;593;53.184;8.216;2023-08-21T05:07:13;101945.81;;;18.18;100.00
1207;BME280;593;53.184;8.216;2023-08-21T05:09:38;101945.59;;;18.14;100.00
1207;BME280;593;53.184;8.216;2023-08-21T05:12:05;101956.63;;;18.14;100.00
1207;BME280;593;53.184;8.216;2023-08-21T05:14:30;101956.41;;;18.11;100.00
1207;BME280;593;53.184;8.216;2023-08-21T05:16:56;101941.69;;;18.02;100.00
1207;BME280;593;53.184;8.216;2023-08-21T05:19:21;101955.78;;;18.14;100.00
1207;BME280;593;53.184;8.216;2023-08-21T05:21:46;101920.13;;;17.90;100.00
1207;BME280;593;53.184;8.216;2023-08-21T05:24:12;101946.50;;;18.10;100.00
1207;BME280;593;53.184;8.216;2023-08-21T05:26:38;101952.53;;;18.12;100.00
1207;BME280;593;53.184;8.216;2023-08-21T05:29:03;101955.59;;;18.10;100.00
1207;BME280;593;53.184;8.216;2023-08-21T05:31:29;101944.25;;;18.12;100.00
1207;BME280;593;53.184;8.216;2023-08-21T05:33:54;101949.56;;;18.08;100.00
1207;BME280;593;53.184;8.216;2023-08-21T05:36:19;101962.13;;;18.14;100.00
1207;BME280;593;53.184;8.216;2023-08-21T05:38:45;101977.97;;;18.22;100.00
1207;BME280;593;53.184;8.216;2023-08-21T05:41:13;101974.09;;;18.23;100.00
1207;BME280;593;53.184;8.216;2023-08-21T05:43:38;101962.13;;;18.14;100.00
1207;BME280;593;53.184;8.216;2023-08-21T05:46:05;101958.19;;;18.20;100.00
1207;BME280;593;53.184;8.216;2023-08-21T05:48:31;101965.03;;;18.23;100.00
1207;BME280;593;53.184;8.216;2023-08-21T05:50:56;101971.78;;;18.30;100.00
1207;BME280;593;53.184;8.216;2023-08-21T05:53:22;101962.78;;;18.25;100.00
1207;BME280;593;53.184;8.216;2023-08-21T05:55:47;101980.47;;;18.37;100.00
1207;BME280;593;53.184;8.216;2023-08-21T05:58:13;101966.47;;;18.34;100.00
1207;BME280;593;53.184;8.216;2023-08-21T06:00:38;101980.16;;;18.39;100.00
1207;BME280;593;53.184;8.216;2023-08-21T06:03:04;101969.66;;;18.41;100.00
1207;BME280;593;53.184;8.216;2023-08-21T06:05:30;101972.34;;;18.46;100.00
1207;BME280;593;53.184;8.216;2023-08-21T06:07:55;101980.81;;;18.49;100.00
1207;BME280;593;53.184;8.216;2023-08-21T06:10:21;101968.19;;;18.48;100.00
1207;BME280;593;53.184;8.216;2023-08-21T06:12:46;101977.16;;;18.54;100.00
1207;BME280;593;53.184;8.216;2023-08-21T06:15:13;101969.00;;;18.63;100.00
1207;BME280;593;53.184;8.216;2023-08-21T06:17:38;101983.94;;;18.75;100.00
1207;BME280;593;53.184;8.216;2023-08-21T06:20:04;101973.72;;;18.76;100.00
1207;BME280;593;53.184;8.216;2023-08-21T06:22:34;101980.47;;;18.83;100.00
1207;BME280;593;53.184;8.216;2023-08-21T06:25:00;101970.06;;;18.80;100.00
1207;BME280;593;53.184;8.216;2023-08-21T06:27:25;101986.81;;;18.97;100.00
1207;BME280;593;53.184;8.216;2023-08-21T06:29:51;101983.72;;;18.99;100.00
1207;BME280;593;53.184;8.216;2023-08-21T06:32:16;101967.81;;;18.96;100.00
1207;BME280;593;53.184;8.216;2023-08-21T06:34:41;101979.88;;;19.13;100.00
1207;BME280;593;53.184;8.216;2023-08-21T06:37:07;101972.38;;;19.14;100.00
1207;BME280;593;53.184;8.216;2023-08-21T06:39:33;101991.09;;;19.31;100.00
1207;BME280;593;53.184;8.216;2023-08-21T06:41:59;101988.22;;;19.36;100.00
1207;BME280;593;53.184;8.216;2023-08-21T06:44:25;101983.44;;;19.41;100.00
1207;BME280;593;53.184;8.216;2023-08-21T06:46:50;101986.78;;;19.52;100.00
1207;BME280;593;53.184;8.216;2023-08-21T06:49:16;101997.47;;;19.67;100.00
1207;BME280;593;53.184;8.216;2023-08-21T06:51:41;101993.69;;;19.76;100.00
1207;BME280;593;53.184;8.216;2023-08-21T06:54:06;101976.91;;;19.73;100.00
1207;BME280;593;53.184;8.216;2023-08-21T06:56:32;101983.69;;;19.89;100.00
1207;BME280;593;53.184;8.216;2023-08-21T06:58:57;101986.22;;;19.99;100.00
1207;BME280;593;53.184;8.216;2023-08-21T07:01:22;101991.69;;;20.13;100.00
1207;BME280;593;53.184;8.216;2023-08-21T07:03:48;101993.63;;;20.26;100.00
1207;BME280;593;53.184;8.216;2023-08-21T07:06:14;101986.53;;;20.33;100.00
1207;BME280;593;53.184;8.216;2023-08-21T07:08:39;101981.16;;;20.37;100.00
1207;BME280;593;53.184;8.216;2023-08-21T07:11:06;101995.91;;;20.55;100.00
1207;BME280;593;53.184;8.216;2023-08-21T07:13:33;101996.13;;;20.67;100.00
1207;BME280;593;53.184;8.216;2023-08-21T07:15:58;102002.41;;;20.81;100.00
1207;BME280;593;53.184;8.216;2023-08-21T07:18:23;101995.91;;;20.85;100.00
1207;BME280;593;53.184;8.216;2023-08-21T07:20:52;102000.81;;;20.97;100.00
1207;BME280;593;53.184;8.216;2023-08-21T07:23:17;101994.84;;;21.03;100.00
1207;BME280;593;53.184;8.216;2023-08-21T07:25:42;102003.72;;;21.23;100.00
1207;BME280;593;53.184;8.216;2023-08-21T07:28:07;101994.78;;;21.26;100.00
1207;BME280;593;53.184;8.216;2023-08-21T07:30:33;102009.00;;;21.41;100.00
1207;BME280;593;53.184;8.216;2023-08-21T07:32:58;102007.88;;;21.51;100.00
1207;BME280;593;53.184;8.216;2023-08-21T07:35:23;101997.47;;;21.56;100.00
1207;BME280;593;53.184;8.216;2023-08-21T07:37:48;102000.56;;;21.72;100.00
1207;BME280;593;53.184;8.216;2023-08-21T07:40:15;102001.06;;;21.83;100.00
1207;BME280;593;53.184;8.216;2023-08-21T07:42:41;102002.09;;;21.87;100.00
1207;BME280;593;53.184;8.216;2023-08-21T07:45:06;102026.84;;;22.09;100.00
1207;BME280;593;53.184;8.216;2023-08-21T07:47:32;102024.75;;;22.14;100.00
1207;BME280;593;53.184;8.216;2023-08-21T07:49:57;102020.47;;;22.25;100.00
1207;BME280;593;53.184;8.216;2023-08-21T07:52:23;102011.47;;;22.37;100.00
1207;BME280;593;53.184;8.216;2023-08-21T07:54:54;102020.63;;;22.46;100.00
1207;BME280;593;53.184;8.216;2023-08-21T07:57:19;102015.38;;;22.53;100.00
1207;BME280;593;53.184;8.216;2023-08-21T07:59:45;102013.72;;;22.61;100.00
1207;BME280;593;53.184;8.216;2023-08-21T08:02:10;102022.06;;;22.69;99.58
1207;BME280;593;53.184;8.216;2023-08-21T08:04:39;102030.50;;;22.81;99.19
1207;BME280;593;53.184;8.216;2023-08-21T08:07:04;102027.56;;;22.86;98.17
1207;BME280;593;53.184;8.216;2023-08-21T08:09:30;102018.56;;;22.89;97.41
1207;BME280;593;53.184;8.216;2023-08-21T08:11:55;102022.59;;;23.01;95.72
1207;BME280;593;53.184;8.216;2023-08-21T08:14:20;102012.31;;;23.01;94.77
1207;BME280;593;53.184;8.216;2023-08-21T08:16:46;101995.84;;;22.96;93.80
1207;BME280;593;53.184;8.216;2023-08-21T08:19:11;102011.94;;;23.11;92.80
1207;BME280;593;53.184;8.216;2023-08-21T08:21:36;102017.94;;;23.22;90.95
1207;BME280;593;53.184;8.216;2023-08-21T08:24:02;102013.06;;;23.19;89.73
1207;BME280;593;53.184;8.216;2023-08-21T08:26:27;102009.59;;;23.22;89.92
1207;BME280;593;53.184;8.216;2023-08-21T08:28:52;102012.78;;;23.32;87.76
1207;BME280;593;53.184;8.216;2023-08-21T08:31:18;102022.59;;;23.38;87.52
1207;BME280;593;53.184;8.216;2023-08-21T08:33:44;102018.50;;;23.44;87.50
1207;BME280;593;53.184;8.216;2023-08-21T08:36:09;101992.88;;;23.39;86.27
1207;BME280;593;53.184;8.216;2023-08-21T08:38:35;102005.91;;;23.47;86.51
1207;BME280;593;53.184;8.216;2023-08-21T08:41:02;102012.69;;;23.58;85.99
1207;BME280;593;53.184;8.216;2023-08-21T08:43:27;102015.25;;;23.63;85.52
1207;BME280;593;53.184;8.216;2023-08-21T08:45:56;102014.13;;;23.64;84.30
1207;BME280;593;53.184;8.216;2023-08-21T08:48:21;102010.66;;;23.67;82.08
1207;BME280;593;53.184;8.216;2023-08-21T08:50:47;102008.47;;;23.73;82.68
1207;BME280;593;53.184;8.216;2023-08-21T08:53:15;102003.41;;;23.75;82.84
1207;BME280;593;53.184;8.216;2023-08-21T08:55:41;102003.06;;;23.76;82.58
1207;BME280;593;53.184;8.216;2023-08-21T08:58:06;102008.44;;;23.81;82.50
1207;BME280;593;53.184;8.216;2023-08-21T09:00:31;101995.09;;;23.75;81.70
1207;BME280;593;53.184;8.216;2023-08-21T09:02:57;102008.91;;;23.83;80.73
1207;BME280;593;53.184;8.216;2023-08-21T09:05:23;102013.59;;;23.91;79.97
1207;BME280;593;53.184;8.216;2023-08-21T09:08:02;101989.44;;;23.83;79.68
1207;BME280;593;53.184;8.216;2023-08-21T09:10:28;101996.22;;;23.94;79.85
1207;BME280;593;53.184;8.216;2023-08-21T09:12:53;102002.06;;;24.01;78.57
1207;BME280;593;53.184;8.216;2023-08-21T09:15:18;102006.75;;;24.09;78.53
1207;BME280;593;53.184;8.216;2023-08-21T09:17:53;102001.66;;;24.11;78.11
1207;BME280;593;53.184;8.216;2023-08-21T09:20:18;101988.28;;;24.05;76.91
1207;BME280;593;53.184;8.216;2023-08-21T09:22:53;102003.06;;;24.17;76.05
1207;BME280;593;53.184;8.216;2023-08-21T09:25:20;101999.34;;;24.13;75.34
1207;BME280;593;53.184;8.216;2023-08-21T09:27:45;101990.44;;;24.20;75.40
1207;BME280;593;53.184;8.216;2023-08-21T09:30:11;101994.50;;;24.22;74.83
1207;BME280;593;53.184;8.216;2023-08-21T09:32:57;101997.69;;;24.33;75.76
1207;BME280;593;53.184;8.216;2023-08-21T09:35:25;101977.97;;;24.26;73.38
1207;BME280;593;53.184;8.216;2023-08-21T09:37:51;101996.53;;;24.34;71.90
1207;BME280;593;53.184;8.216;2023-08-21T09:40:19;101993.41;;;24.36;70.80
1207;BME280;593;53.184;8.216;2023-08-21T09:42:45;101976.59;;;24.32;70.40
1207;BME280;593;53.184;8.216;2023-08-21T09:45:12;101990.16;;;24.34;68.72
1207;BME280;593;53.184;8.216;2023-08-21T09:47:38;101984.59;;;24.34;67.57
1207;BME280;593;53.184;8.216;2023-08-21T09:50:05;101991.78;;;24.35;68.02
1207;BME280;593;53.184;8.216;2023-08-21T09:52:31;101988.50;;;24.33;69.18
1207;BME280;593;53.184;8.216;2023-08-21T09:54:57;101991.66;;;24.31;69.80
1207;BME280;593;53.184;8.216;2023-08-21T09:57:23;101981.13;;;24.37;69.72
1207;BME280;593;53.184;8.216;2023-08-21T09:59:53;101982.88;;;24.41;69.79
1207;BME280;593;53.184;8.216;2023-08-21T10:02:22;101995.44;;;24.47;69.11
1207;BME280;593;53.184;8.216;2023-08-21T10:04:49;101986.13;;;24.43;67.27
1207;BME280;593;53.184;8.216;2023-08-21T10:07:16;101991.25;;;24.53;66.56
1207;BME280;593;53.184;8.216;2023-08-21T10:09:45;101980.69;;;24.47;67.74
1207;BME280;593;53.184;8.216;2023-08-21T10:12:13;101983.38;;;24.55;68.62
1207;BME280;593;53.184;8.216;2023-08-21T10:14:40;101979.78;;;24.55;70.25
1207;BME280;593;53.184;8.216;2023-08-21T10:17:06;101974.56;;;24.65;71.50
1207;BME280;593;53.184;8.216;2023-08-21T10:19:35;101975.28;;;24.74;71.80
1207;BME280;593;53.184;8.216;2023-08-21T10:22:00;101978.34;;;24.81;71.30
1207;BME280;593;53.184;8.216;2023-08-21T10:24:33;101978.13;;;24.87;68.67
1207;BME280;593;53.184;8.216;2023-08-21T10:27:00;101975.69;;;24.85;65.41
1207;BME280;593;53.184;8.216;2023-08-21T10:29:26;101976.03;;;24.83;64.20
1207;BME280;593;53.184;8.216;2023-08-21T10:32:01;101974.06;;;24.84;64.96
1207;BME280;593;53.184;8.216;2023-08-21T10:34:37;101972.91;;;24.85;65.99
1207;BME280;593;53.184;8.216;2023-08-21T10:37:05;101979.53;;;24.93;66.33
1207;BME280;593;53.184;8.216;2023-08-21T10:39:31;101981.38;;;25.01;69.09
1207;BME280;593;53.184;8.216;2023-08-21T10:42:09;101982.31;;;25.05;70.53
1207;BME280;593;53.184;8.216;2023-08-21T10:49:43;101973.00;;;25.13;67.37
1207;BME280;593;53.184;8.216;2023-08-21T10:52:08;101984.28;;;25.16;64.69
1207;BME280;593;53.184;8.216;2023-08-21T10:54:47;101977.19;;;25.19;65.11
1207;BME280;593;53.184;8.216;2023-08-21T10:57:13;101977.41;;;25.26;70.65
1207;BME280;593;53.184;8.216;2023-08-21T10:59:41;101988.91;;;25.36;71.91
1207;BME280;593;53.184;8.216;2023-08-21T11:02:14;101989.72;;;25.37;68.35
1207;BME280;593;53.184;8.216;2023-08-21T11:04:40;101980.31;;;25.41;69.83
1207;BME280;593;53.184;8.216;2023-08-21T11:07:06;101987.97;;;25.44;66.72
1207;BME280;593;53.184;8.216;2023-08-21T11:09:35;101990.19;;;25.51;71.83
1207;BME280;593;53.184;8.216;2023-08-21T11:12:14;101969.78;;;25.47;70.22
1207;BME280;593;53.184;8.216;2023-08-21T11:14:40;101982.03;;;25.58;71.65
1207;BME280;593;53.184;8.216;2023-08-21T11:17:07;101986.66;;;25.66;73.23
1207;BME280;593;53.184;8.216;2023-08-21T11:19:33;101969.94;;;25.66;71.44
1207;BME280;593;53.184;8.216;2023-08-21T11:22:00;101971.22;;;25.69;71.94
1207;BME280;593;53.184;8.216;2023-08-21T11:27:23;101971.63;;;25.83;72.36
1207;BME280;593;53.184;8.216;2023-08-21T11:29:50;101976.88;;;25.84;70.65
1207;BME280;593;53.184;8.216;2023-08-21T11:32:23;101968.13;;;25.86;70.00
1207;BME280;593;53.184;8.216;2023-08-21T11:34:55;101976.69;;;25.93;69.98
1207;BME280;593;53.184;8.216;2023-08-21T11:37:25;101973.22;;;25.96;69.51
1207;BME280;593;53.184;8.216;2023-08-21T11:39:54;101980.50;;;26.00;69.02
1207;BME280;593;53.184;8.216;2023-08-21T11:42:21;101968.56;;;26.00;69.80
1207;BME280;593;53.184;8.216;2023-08-21T11:44:51;101973.63;;;26.10;69.34
1207;BME280;593;53.184;8.216;2023-08-21T11:47:18;101978.50;;;26.13;69.19
1207;BME280;593;53.184;8.216;2023-08-21T11:49:45;101977.34;;;26.14;67.49
1207;BME280;593;53.184;8.216;2023-08-21T11:52:22;101971.78;;;26.14;64.23
1207;BME280;593;53.184;8.216;2023-08-21T11:54:50;101981.03;;;26.18;58.26
1207;BME280;593;53.184;8.216;2023-08-21T11:57:16;101969.81;;;26.15;62.78
1207;BME280;593;53.184;8.216;2023-08-21T11:59:42;101978.47;;;26.25;63.64
1207;BME280;593;53.184;8.216;2023-08-21T12:04:34;101977.41;;;26.30;61.07
1207;BME280;593;53.184;8.216;2023-08-21T12:07:00;101980.38;;;26.37;62.84
1207;BME280;593;53.184;8.216;2023-08-21T12:09:25;101982.81;;;26.38;64.21
1207;BME280;593;53.184;8.216;2023-08-21T12:11:51;101979.31;;;26.41;62.10
1207;BME280;593;53.184;8.216;2023-08-21T12:14:17;101972.13;;;26.40;61.54
1207;BME280;593;53.184;8.216;2023-08-21T12:16:42;101964.09;;;26.39;61.39
1207;BME280;593;53.184;8.216;2023-08-21T12:19:07;101966.16;;;26.42;63.91
1207;BME280;593;53.184;8.216;2023-08-21T12:21:34;101961.84;;;26.44;62.86
1207;BME280;593;53.184;8.216;2023-08-21T12:24:03;101974.91;;;26.56;61.98
1207;BME280;593;53.184;8.216;2023-08-21T12:26:28;101966.19;;;26.57;61.60
1207;BME280;593;53.184;8.216;2023-08-21T12:28:54;101959.97;;;26.64;64.08
1207;BME280;593;53.184;8.216;2023-08-21T12:31:19;101963.31;;;26.69;63.58
1207;BME280;593;53.184;8.216;2023-08-21T12:33:44;101945.09;;;26.75;64.84
1207;BME280;593;53.184;8.216;2023-08-21T12:36:09;101943.50;;;26.74;64.30
1207;BME280;593;53.184;8.216;2023-08-21T12:38:35;101953.22;;;26.81;63.36
1207;BME280;593;53.184;8.216;2023-08-21T12:41:03;101949.38;;;26.85;64.10
1207;BME280;593;53.184;8.216;2023-08-21T12:43:29;101949.44;;;26.89;66.11
1207;BME280;593;53.184;8.216;2023-08-21T12:45:55;101952.06;;;26.97;65.96
1207;BME280;593;53.184;8.216;2023-08-21T12:48:20;101956.56;;;27.02;64.80
1207;BME280;593;53.184;8.216;2023-08-21T12:50:46;101946.75;;;27.08;65.16
1207;BME280;593;53.184;8.216;2023-08-21T12:53:11;101942.03;;;27.12;65.99
1207;BME280;593;53.184;8.216;2023-08-21T12:55:37;101942.84;;;27.12;62.87
1207;BME280;593;53.184;8.216;2023-08-21T12:58:03;101940.78;;;27.09;56.99
1207;BME280;593;53.184;8.216;2023-08-21T13:00:28;101949.53;;;27.08;53.76
1207;BME280;593;53.184;8.216;2023-08-21T13:02:54;101945.28;;;27.14;61.28
1207;BME280;593;53.184;8.216;2023-08-21T13:05:19;101943.41;;;27.18;61.51
1207;BME280;593;53.184;8.216;2023-08-21T13:07:45;101938.97;;;27.17;57.55
1207;BME280;593;53.184;8.216;2023-08-21T13:10:10;101932.66;;;27.20;60.59
1207;BME280;593;53.184;8.216;2023-08-21T13:12:36;101938.84;;;27.29;62.77
1207;BME280;593;53.184;8.216;2023-08-21T13:15:02;101923.72;;;27.30;61.32
1207;BME280;593;53.184;8.216;2023-08-21T13:17:28;101933.25;;;27.45;63.53
1207;BME280;593;53.184;8.216;2023-08-21T13:19:53;101923.75;;;27.49;65.51